sensor_id;sensor_type;location;lat;lon;timestamp;P1;durP1;ratioP1;P2;durP2;ratioP2
39956;SDS011;48483;44.640;7.494;2023-07-31T00:02:25;4.35;;;3.67;;
39956;SDS011;48483;44.640;7.494;2023-07-31T00:04:52;9.27;;;3.90;;
39956;SDS011;48483;44.640;7.494;2023-07-31T00:07:18;5.55;;;3.85;;
39956;SDS011;48483;44.640;7.494;2023-07-31T00:09:46;5.78;;;3.88;;
39956;SDS011;48483;44.640;7.494;2023-07-31T00:12:13;6.60;;;4.10;;
39956;SDS011;48483;44.640;7.494;2023-07-31T00:14:39;5.70;;;3.92;;
39956;SDS011;48483;44.640;7.494;2023-07-31T00:17:06;7.10;;;4.25;;
39956;SDS011;48483;44.640;7.494;2023-07-31T00:19:33;4.68;;;3.90;;
39956;SDS011;48483;44.640;7.494;2023-07-31T00:22:00;4.78;;;3.97;;
39956;SDS011;48483;44.640;7.494;2023-07-31T00:24:26;6.63;;;3.75;;
39956;SDS011;48483;44.640;7.494;2023-07-31T00:26:54;6.68;;;4.53;;
39956;SDS011;48483;44.640;7.494;2023-07-31T00:29:21;5.90;;;4.43;;
39956;SDS011;48483;44.640;7.494;2023-07-31T00:31:47;6.35;;;3.97;;
39956;SDS011;48483;44.640;7.494;2023-07-31T00:34:14;6.00;;;4.10;;
39956;SDS011;48483;44.640;7.494;2023-07-31T00:36:41;5.65;;;4.05;;
39956;SDS011;48483;44.640;7.494;2023-07-31T00:39:08;4.82;;;3.80;;
39956;SDS011;48483;44.640;7.494;2023-07-31T00:41:35;6.13;;;4.07;;
39956;SDS011;48483;44.640;7.494;2023-07-31T00:44:03;5.30;;;3.88;;
39956;SDS011;48483;44.640;7.494;2023-07-31T00:46:30;5.38;;;3.80;;
39956;SDS011;48483;44.640;7.494;2023-07-31T00:48:57;5.25;;;4.00;;
39956;SDS011;48483;44.640;7.494;2023-07-31T00:51:24;6.60;;;3.80;;
39956;SDS011;48483;44.640;7.494;2023-07-31T00:53:51;6.72;;;3.53;;
39956;SDS011;48483;44.640;7.494;2023-07-31T00:56:20;5.93;;;4.07;;
39956;SDS011;48483;44.640;7.494;2023-07-31T00:58:47;6.57;;;4.30;;
39956;SDS011;48483;44.640;7.494;2023-07-31T01:01:15;4.35;;;3.13;;
39956;SDS011;48483;44.640;7.494;2023-07-31T01:03:41;8.07;;;4.43;;
39956;SDS011;48483;44.640;7.494;2023-07-31T01:06:13;4.53;;;3.83;;
39956;SDS011;48483;44.640;7.494;2023-07-31T01:08:44;4.43;;;3.63;;
39956;SDS011;48483;44.640;7.494;2023-07-31T01:11:17;4.88;;;4.03;;
39956;SDS011;48483;44.640;7.494;2023-07-31T01:13:48;5.78;;;4.20;;
39956;SDS011;48483;44.640;7.494;2023-07-31T01:16:17;4.90;;;3.80;;
39956;SDS011;48483;44.640;7.494;2023-07-31T01:18:43;4.95;;;3.97;;
39956;SDS011;48483;44.640;7.494;2023-07-31T01:21:16;6.18;;;4.00;;
39956;SDS011;48483;44.640;7.494;2023-07-31T01:24:05;6.00;;;4.88;;
39956;SDS011;48483;44.640;7.494;2023-07-31T01:26:47;7.20;;;4.22;;
39956;SDS011;48483;44.640;7.494;2023-07-31T01:29:20;4.72;;;4.03;;
39956;SDS011;48483;44.640;7.494;2023-07-31T01:31:53;4.93;;;3.83;;
39956;SDS011;48483;44.640;7.494;2023-07-31T01:34:22;5.88;;;4.28;;
39956;SDS011;48483;44.640;7.494;2023-07-31T01:36:49;6.82;;;4.10;;
39956;SDS011;48483;44.640;7.494;2023-07-31T01:39:16;6.22;;;4.22;;
39956;SDS011;48483;44.640;7.494;2023-07-31T01:41:43;6.28;;;3.83;;
39956;SDS011;48483;44.640;7.494;2023-07-31T01:44:11;5.57;;;4.57;;
39956;SDS011;48483;44.640;7.494;2023-07-31T01:46:38;6.07;;;4.22;;
39956;SDS011;48483;44.640;7.494;2023-07-31T01:49:05;5.95;;;4.47;;
39956;SDS011;48483;44.640;7.494;2023-07-31T01:51:32;5.60;;;4.30;;
39956;SDS011;48483;44.640;7.494;2023-07-31T01:54:00;6.28;;;5.00;;
39956;SDS011;48483;44.640;7.494;2023-07-31T01:56:26;5.47;;;3.90;;
39956;SDS011;48483;44.640;7.494;2023-07-31T01:58:53;7.07;;;4.70;;
39956;SDS011;48483;44.640;7.494;2023-07-31T02:01:21;5.57;;;4.13;;
39956;SDS011;48483;44.640;7.494;2023-07-31T02:03:48;5.88;;;4.13;;
39956;SDS011;48483;44.640;7.494;2023-07-31T02:06:14;7.18;;;4.45;;
39956;SDS011;48483;44.640;7.494;2023-07-31T02:08:41;7.65;;;4.38;;
39956;SDS011;48483;44.640;7.494;2023-07-31T02:11:08;4.80;;;4.10;;
39956;SDS011;48483;44.640;7.494;2023-07-31T02:13:34;6.30;;;4.15;;
39956;SDS011;48483;44.640;7.494;2023-07-31T02:16:02;5.65;;;4.57;;
39956;SDS011;48483;44.640;7.494;2023-07-31T02:18:30;6.50;;;4.43;;
39956;SDS011;48483;44.640;7.494;2023-07-31T02:20:57;5.22;;;3.83;;
39956;SDS011;48483;44.640;7.494;2023-07-31T02:23:23;6.18;;;4.40;;
39956;SDS011;48483;44.640;7.494;2023-07-31T02:25:50;5.68;;;4.28;;
39956;SDS011;48483;44.640;7.494;2023-07-31T02:28:17;8.00;;;4.68;;
39956;SDS011;48483;44.640;7.494;2023-07-31T02:30:43;4.53;;;3.90;;
39956;SDS011;48483;44.640;7.494;2023-07-31T02:33:12;5.53;;;3.80;;
39956;SDS011;48483;44.640;7.494;2023-07-31T02:35:41;6.32;;;4.32;;
39956;SDS011;48483;44.640;7.494;2023-07-31T02:38:08;5.95;;;4.35;;
39956;SDS011;48483;44.640;7.494;2023-07-31T02:40:34;5.70;;;4.93;;
39956;SDS011;48483;44.640;7.494;2023-07-31T02:43:01;7.30;;;4.30;;
39956;SDS011;48483;44.640;7.494;2023-07-31T02:45:28;7.60;;;3.88;;
39956;SDS011;48483;44.640;7.494;2023-07-31T02:47:54;6.47;;;3.85;;
39956;SDS011;48483;44.640;7.494;2023-07-31T02:50:21;4.47;;;3.72;;
39956;SDS011;48483;44.640;7.494;2023-07-31T02:52:49;4.20;;;3.42;;
39956;SDS011;48483;44.640;7.494;2023-07-31T02:55:16;4.30;;;3.25;;
39956;SDS011;48483;44.640;7.494;2023-07-31T02:57:42;5.72;;;3.63;;
39956;SDS011;48483;44.640;7.494;2023-07-31T03:00:09;5.32;;;3.97;;
39956;SDS011;48483;44.640;7.494;2023-07-31T03:02:36;4.88;;;3.42;;
39956;SDS011;48483;44.640;7.494;2023-07-31T03:05:03;6.97;;;4.18;;
39956;SDS011;48483;44.640;7.494;2023-07-31T03:07:30;6.40;;;3.92;;
39956;SDS011;48483;44.640;7.494;2023-07-31T03:09:58;6.03;;;4.28;;
39956;SDS011;48483;44.640;7.494;2023-07-31T03:12:25;5.00;;;4.03;;
39956;SDS011;48483;44.640;7.494;2023-07-31T03:14:51;6.25;;;4.25;;
39956;SDS011;48483;44.640;7.494;2023-07-31T03:17:18;7.20;;;4.20;;
39956;SDS011;48483;44.640;7.494;2023-07-31T03:19:45;8.80;;;3.75;;
39956;SDS011;48483;44.640;7.494;2023-07-31T03:22:11;4.97;;;4.00;;
39956;SDS011;48483;44.640;7.494;2023-07-31T03:24:38;5.13;;;4.18;;
39956;SDS011;48483;44.640;7.494;2023-07-31T03:27:06;3.85;;;3.08;;
39956;SDS011;48483;44.640;7.494;2023-07-31T03:29:33;4.43;;;3.25;;
39956;SDS011;48483;44.640;7.494;2023-07-31T03:32:00;5.68;;;3.45;;
39956;SDS011;48483;44.640;7.494;2023-07-31T03:34:27;4.10;;;3.05;;
39956;SDS011;48483;44.640;7.494;2023-07-31T03:36:54;4.65;;;3.47;;
39956;SDS011;48483;44.640;7.494;2023-07-31T03:39:21;4.47;;;3.10;;
39956;SDS011;48483;44.640;7.494;2023-07-31T03:41:47;3.67;;;2.67;;
39956;SDS011;48483;44.640;7.494;2023-07-31T03:44:18;4.75;;;3.35;;
39956;SDS011;48483;44.640;7.494;2023-07-31T03:46:45;3.45;;;2.90;;
39956;SDS011;48483;44.640;7.494;2023-07-31T03:49:12;4.53;;;3.20;;
39956;SDS011;48483;44.640;7.494;2023-07-31T03:51:38;5.32;;;3.42;;
39956;SDS011;48483;44.640;7.494;2023-07-31T03:54:05;3.47;;;2.90;;
39956;SDS011;48483;44.640;7.494;2023-07-31T03:56:33;5.70;;;3.53;;
39956;SDS011;48483;44.640;7.494;2023-07-31T03:59:00;6.90;;;3.22;;
39956;SDS011;48483;44.640;7.494;2023-07-31T04:01:28;4.38;;;3.30;;
39956;SDS011;48483;44.640;7.494;2023-07-31T04:03:54;4.32;;;2.97;;
39956;SDS011;48483;44.640;7.494;2023-07-31T04:06:21;5.65;;;3.63;;
39956;SDS011;48483;44.640;7.494;2023-07-31T04:08:48;6.93;;;3.17;;
39956;SDS011;48483;44.640;7.494;2023-07-31T04:11:14;7.35;;;3.50;;
39956;SDS011;48483;44.640;7.494;2023-07-31T04:13:42;4.20;;;3.28;;
39956;SDS011;48483;44.640;7.494;2023-07-31T04:16:09;7.03;;;3.30;;
39956;SDS011;48483;44.640;7.494;2023-07-31T04:18:37;4.32;;;2.83;;
39956;SDS011;48483;44.640;7.494;2023-07-31T04:21:03;6.55;;;3.42;;
39956;SDS011;48483;44.640;7.494;2023-07-31T04:23:30;4.97;;;3.03;;
39956;SDS011;48483;44.640;7.494;2023-07-31T04:25:57;4.78;;;3.05;;
39956;SDS011;48483;44.640;7.494;2023-07-31T04:28:23;5.35;;;3.00;;
39956;SDS011;48483;44.640;7.494;2023-07-31T04:30:51;4.65;;;3.00;;
39956;SDS011;48483;44.640;7.494;2023-07-31T04:33:19;4.40;;;2.75;;
39956;SDS011;48483;44.640;7.494;2023-07-31T04:35:49;4.72;;;3.15;;
39956;SDS011;48483;44.640;7.494;2023-07-31T04:38:18;4.15;;;3.17;;
39956;SDS011;48483;44.640;7.494;2023-07-31T04:40:45;5.88;;;2.88;;
39956;SDS011;48483;44.640;7.494;2023-07-31T04:43:11;4.25;;;2.70;;
39956;SDS011;48483;44.640;7.494;2023-07-31T04:45:38;3.78;;;2.60;;
39956;SDS011;48483;44.640;7.494;2023-07-31T04:48:05;5.70;;;2.78;;
39956;SDS011;48483;44.640;7.494;2023-07-31T04:50:31;3.50;;;2.63;;
39956;SDS011;48483;44.640;7.494;2023-07-31T04:52:59;4.28;;;2.67;;
39956;SDS011;48483;44.640;7.494;2023-07-31T04:55:26;3.83;;;3.13;;
39956;SDS011;48483;44.640;7.494;2023-07-31T04:57:52;4.15;;;2.50;;
39956;SDS011;48483;44.640;7.494;2023-07-31T05:00:19;4.22;;;2.72;;
39956;SDS011;48483;44.640;7.494;2023-07-31T05:02:46;4.20;;;2.47;;
39956;SDS011;48483;44.640;7.494;2023-07-31T05:05:13;4.85;;;2.70;;
39956;SDS011;48483;44.640;7.494;2023-07-31T05:07:39;4.63;;;2.45;;
39956;SDS011;48483;44.640;7.494;2023-07-31T05:10:08;5.85;;;2.33;;
39956;SDS011;48483;44.640;7.494;2023-07-31T05:12:35;4.28;;;2.47;;
39956;SDS011;48483;44.640;7.494;2023-07-31T05:15:01;3.47;;;2.53;;
39956;SDS011;48483;44.640;7.494;2023-07-31T05:17:29;3.20;;;2.28;;
39956;SDS011;48483;44.640;7.494;2023-07-31T05:19:56;3.20;;;2.22;;
39956;SDS011;48483;44.640;7.494;2023-07-31T05:22:23;3.35;;;2.20;;
39956;SDS011;48483;44.640;7.494;2023-07-31T05:24:50;3.50;;;2.05;;
39956;SDS011;48483;44.640;7.494;2023-07-31T05:27:18;4.75;;;2.47;;
39956;SDS011;48483;44.640;7.494;2023-07-31T05:29:45;3.78;;;2.50;;
39956;SDS011;48483;44.640;7.494;2023-07-31T05:32:11;4.10;;;2.65;;
39956;SDS011;48483;44.640;7.494;2023-07-31T05:34:38;4.55;;;2.30;;
39956;SDS011;48483;44.640;7.494;2023-07-31T05:37:05;3.85;;;2.60;;
39956;SDS011;48483;44.640;7.494;2023-07-31T05:39:31;4.28;;;2.80;;
39956;SDS011;48483;44.640;7.494;2023-07-31T05:41:58;3.70;;;2.50;;
39956;SDS011;48483;44.640;7.494;2023-07-31T05:44:26;5.03;;;2.97;;
39956;SDS011;48483;44.640;7.494;2023-07-31T05:46:53;6.43;;;2.70;;
39956;SDS011;48483;44.640;7.494;2023-07-31T05:49:19;4.20;;;2.30;;
39956;SDS011;48483;44.640;7.494;2023-07-31T05:51:46;3.13;;;2.47;;
39956;SDS011;48483;44.640;7.494;2023-07-31T05:54:13;4.18;;;2.90;;
39956;SDS011;48483;44.640;7.494;2023-07-31T05:56:39;4.53;;;2.40;;
39956;SDS011;48483;44.640;7.494;2023-07-31T05:59:06;3.28;;;2.40;;
39956;SDS011;48483;44.640;7.494;2023-07-31T06:01:35;3.85;;;2.30;;
39956;SDS011;48483;44.640;7.494;2023-07-31T06:04:02;5.47;;;2.72;;
39956;SDS011;48483;44.640;7.494;2023-07-31T06:06:29;3.22;;;2.20;;
39956;SDS011;48483;44.640;7.494;2023-07-31T06:08:56;5.15;;;3.03;;
39956;SDS011;48483;44.640;7.494;2023-07-31T06:11:23;4.15;;;2.33;;
39956;SDS011;48483;44.640;7.494;2023-07-31T06:13:50;3.97;;;2.20;;
39956;SDS011;48483;44.640;7.494;2023-07-31T06:16:16;4.40;;;2.70;;
39956;SDS011;48483;44.640;7.494;2023-07-31T06:18:45;4.00;;;2.72;;
39956;SDS011;48483;44.640;7.494;2023-07-31T06:21:11;4.07;;;2.70;;
39956;SDS011;48483;44.640;7.494;2023-07-31T06:23:38;3.50;;;2.38;;
39956;SDS011;48483;44.640;7.494;2023-07-31T06:26:05;6.78;;;3.00;;
39956;SDS011;48483;44.640;7.494;2023-07-31T06:28:31;3.97;;;2.83;;
39956;SDS011;48483;44.640;7.494;2023-07-31T06:30:58;4.30;;;2.63;;
39956;SDS011;48483;44.640;7.494;2023-07-31T06:33:25;7.28;;;3.15;;
39956;SDS011;48483;44.640;7.494;2023-07-31T06:35:53;3.65;;;2.70;;
39956;SDS011;48483;44.640;7.494;2023-07-31T06:38:21;7.80;;;3.50;;
39956;SDS011;48483;44.640;7.494;2023-07-31T06:40:50;4.25;;;2.35;;
39956;SDS011;48483;44.640;7.494;2023-07-31T06:43:17;3.25;;;2.33;;
39956;SDS011;48483;44.640;7.494;2023-07-31T06:45:43;4.50;;;2.35;;
39956;SDS011;48483;44.640;7.494;2023-07-31T06:48:11;6.43;;;2.75;;
39956;SDS011;48483;44.640;7.494;2023-07-31T06:50:38;12.07;;;3.90;;
39956;SDS011;48483;44.640;7.494;2023-07-31T06:53:06;3.97;;;2.83;;
39956;SDS011;48483;44.640;7.494;2023-07-31T06:55:33;5.20;;;3.00;;
39956;SDS011;48483;44.640;7.494;2023-07-31T06:57:59;3.85;;;2.42;;
39956;SDS011;48483;44.640;7.494;2023-07-31T07:00:26;5.70;;;2.90;;
39956;SDS011;48483;44.640;7.494;2023-07-31T07:02:53;5.53;;;2.72;;
39956;SDS011;48483;44.640;7.494;2023-07-31T07:05:20;3.55;;;2.65;;
39956;SDS011;48483;44.640;7.494;2023-07-31T07:07:48;7.00;;;2.97;;
39956;SDS011;48483;44.640;7.494;2023-07-31T07:10:17;5.75;;;3.63;;
39956;SDS011;48483;44.640;7.494;2023-07-31T07:12:44;5.55;;;2.60;;
39956;SDS011;48483;44.640;7.494;2023-07-31T07:15:12;5.10;;;3.03;;
39956;SDS011;48483;44.640;7.494;2023-07-31T07:17:38;4.68;;;3.08;;
39956;SDS011;48483;44.640;7.494;2023-07-31T07:20:05;5.88;;;3.03;;
39956;SDS011;48483;44.640;7.494;2023-07-31T07:22:33;5.25;;;3.30;;
39956;SDS011;48483;44.640;7.494;2023-07-31T07:25:00;5.30;;;3.42;;
39956;SDS011;48483;44.640;7.494;2023-07-31T07:27:28;6.40;;;3.40;;
39956;SDS011;48483;44.640;7.494;2023-07-31T07:29:55;4.82;;;3.70;;
39956;SDS011;48483;44.640;7.494;2023-07-31T07:32:22;3.80;;;3.13;;
39956;SDS011;48483;44.640;7.494;2023-07-31T07:34:48;6.72;;;3.97;;
39956;SDS011;48483;44.640;7.494;2023-07-31T07:37:15;5.82;;;4.00;;
39956;SDS011;48483;44.640;7.494;2023-07-31T07:39:42;7.57;;;5.60;;
39956;SDS011;48483;44.640;7.494;2023-07-31T07:42:09;5.60;;;3.75;;
39956;SDS011;48483;44.640;7.494;2023-07-31T07:44:37;8.27;;;4.70;;
39956;SDS011;48483;44.640;7.494;2023-07-31T07:47:04;8.77;;;5.63;;
39956;SDS011;48483;44.640;7.494;2023-07-31T07:49:34;7.47;;;5.10;;
39956;SDS011;48483;44.640;7.494;2023-07-31T07:52:01;8.63;;;5.05;;
39956;SDS011;48483;44.640;7.494;2023-07-31T07:54:28;9.02;;;6.03;;
39956;SDS011;48483;44.640;7.494;2023-07-31T07:56:56;9.00;;;5.80;;
39956;SDS011;48483;44.640;7.494;2023-07-31T07:59:22;6.75;;;4.65;;
39956;SDS011;48483;44.640;7.494;2023-07-31T08:01:50;5.90;;;5.15;;
39956;SDS011;48483;44.640;7.494;2023-07-31T08:04:17;5.97;;;4.47;;
39956;SDS011;48483;44.640;7.494;2023-07-31T08:06:43;7.65;;;5.47;;
39956;SDS011;48483;44.640;7.494;2023-07-31T08:09:10;10.48;;;7.80;;
39956;SDS011;48483;44.640;7.494;2023-07-31T08:11:37;8.32;;;7.22;;
39956;SDS011;48483;44.640;7.494;2023-07-31T08:14:04;7.47;;;6.47;;
39956;SDS011;48483;44.640;7.494;2023-07-31T08:16:30;13.48;;;7.50;;
39956;SDS011;48483;44.640;7.494;2023-07-31T08:18:58;10.15;;;7.43;;
39956;SDS011;48483;44.640;7.494;2023-07-31T08:21:25;11.88;;;8.80;;
39956;SDS011;48483;44.640;7.494;2023-07-31T08:23:52;9.98;;;7.72;;
39956;SDS011;48483;44.640;7.494;2023-07-31T08:26:19;9.90;;;8.82;;
39956;SDS011;48483;44.640;7.494;2023-07-31T08:28:46;10.40;;;8.45;;
39956;SDS011;48483;44.640;7.494;2023-07-31T08:31:13;11.90;;;10.25;;
39956;SDS011;48483;44.640;7.494;2023-07-31T08:33:40;11.07;;;9.10;;
39956;SDS011;48483;44.640;7.494;2023-07-31T08:36:08;11.15;;;9.57;;
39956;SDS011;48483;44.640;7.494;2023-07-31T08:38:34;13.63;;;8.50;;
39956;SDS011;48483;44.640;7.494;2023-07-31T08:41:02;10.70;;;9.10;;
39956;SDS011;48483;44.640;7.494;2023-07-31T08:43:29;11.32;;;8.38;;
39956;SDS011;48483;44.640;7.494;2023-07-31T08:45:56;16.67;;;11.82;;
39956;SDS011;48483;44.640;7.494;2023-07-31T08:48:23;9.85;;;8.63;;
39956;SDS011;48483;44.640;7.494;2023-07-31T08:50:51;11.45;;;9.10;;
39956;SDS011;48483;44.640;7.494;2023-07-31T08:53:20;12.18;;;10.43;;
39956;SDS011;48483;44.640;7.494;2023-07-31T08:55:47;12.82;;;10.98;;
39956;SDS011;48483;44.640;7.494;2023-07-31T08:58:15;10.93;;;8.80;;
39956;SDS011;48483;44.640;7.494;2023-07-31T09:00:43;9.02;;;7.60;;
39956;SDS011;48483;44.640;7.494;2023-07-31T09:03:12;10.63;;;8.20;;
39956;SDS011;48483;44.640;7.494;2023-07-31T09:08:08;12.88;;;10.15;;
39956;SDS011;48483;44.640;7.494;2023-07-31T09:10:41;11.15;;;8.80;;
39956;SDS011;48483;44.640;7.494;2023-07-31T09:13:08;10.75;;;8.82;;
39956;SDS011;48483;44.640;7.494;2023-07-31T09:15:36;9.18;;;7.35;;
39956;SDS011;48483;44.640;7.494;2023-07-31T09:18:04;9.45;;;7.90;;
39956;SDS011;48483;44.640;7.494;2023-07-31T09:20:33;12.93;;;11.57;;
39956;SDS011;48483;44.640;7.494;2023-07-31T09:23:10;11.80;;;8.80;;
39956;SDS011;48483;44.640;7.494;2023-07-31T09:25:38;8.07;;;6.78;;
39956;SDS011;48483;44.640;7.494;2023-07-31T09:28:08;9.63;;;7.57;;
39956;SDS011;48483;44.640;7.494;2023-07-31T09:30:46;9.38;;;6.40;;
39956;SDS011;48483;44.640;7.494;2023-07-31T09:33:14;7.50;;;5.60;;
39956;SDS011;48483;44.640;7.494;2023-07-31T09:35:41;10.35;;;7.75;;
39956;SDS011;48483;44.640;7.494;2023-07-31T09:38:09;9.50;;;7.65;;
39956;SDS011;48483;44.640;7.494;2023-07-31T09:40:37;9.40;;;6.78;;
39956;SDS011;48483;44.640;7.494;2023-07-31T09:43:05;9.27;;;7.63;;
39956;SDS011;48483;44.640;7.494;2023-07-31T09:45:34;8.88;;;5.88;;
39956;SDS011;48483;44.640;7.494;2023-07-31T09:48:02;9.45;;;6.90;;
39956;SDS011;48483;44.640;7.494;2023-07-31T09:50:29;7.88;;;6.70;;
39956;SDS011;48483;44.640;7.494;2023-07-31T09:52:56;10.70;;;7.30;;
39956;SDS011;48483;44.640;7.494;2023-07-31T09:55:23;9.10;;;6.80;;
39956;SDS011;48483;44.640;7.494;2023-07-31T09:57:50;8.32;;;5.70;;
39956;SDS011;48483;44.640;7.494;2023-07-31T10:00:18;8.82;;;5.70;;
39956;SDS011;48483;44.640;7.494;2023-07-31T10:05:15;8.60;;;7.55;;
39956;SDS011;48483;44.640;7.494;2023-07-31T10:07:42;9.63;;;7.30;;
39956;SDS011;48483;44.640;7.494;2023-07-31T10:10:11;9.23;;;7.17;;
39956;SDS011;48483;44.640;7.494;2023-07-31T10:12:38;8.60;;;5.80;;
39956;SDS011;48483;44.640;7.494;2023-07-31T10:15:05;9.95;;;6.60;;
39956;SDS011;48483;44.640;7.494;2023-07-31T10:17:35;9.25;;;8.00;;
39956;SDS011;48483;44.640;7.494;2023-07-31T10:20:03;10.43;;;6.78;;
39956;SDS011;48483;44.640;7.494;2023-07-31T10:22:32;9.77;;;6.50;;
39956;SDS011;48483;44.640;7.494;2023-07-31T10:25:00;12.60;;;9.13;;
39956;SDS011;48483;44.640;7.494;2023-07-31T10:27:27;9.60;;;7.97;;
39956;SDS011;48483;44.640;7.494;2023-07-31T10:29:54;10.55;;;8.80;;
39956;SDS011;48483;44.640;7.494;2023-07-31T10:32:23;12.45;;;7.00;;
39956;SDS011;48483;44.640;7.494;2023-07-31T10:34:52;9.15;;;6.53;;
39956;SDS011;48483;44.640;7.494;2023-07-31T10:37:20;8.93;;;7.07;;
39956;SDS011;48483;44.640;7.494;2023-07-31T10:39:55;9.00;;;7.53;;
39956;SDS011;48483;44.640;7.494;2023-07-31T10:42:27;7.55;;;6.65;;
39956;SDS011;48483;44.640;7.494;2023-07-31T10:44:58;8.02;;;7.22;;
39956;SDS011;48483;44.640;7.494;2023-07-31T10:47:26;9.25;;;6.57;;
39956;SDS011;48483;44.640;7.494;2023-07-31T10:49:54;9.02;;;7.45;;
39956;SDS011;48483;44.640;7.494;2023-07-31T10:52:37;9.43;;;7.22;;
39956;SDS011;48483;44.640;7.494;2023-07-31T10:55:23;7.90;;;5.38;;
39956;SDS011;48483;44.640;7.494;2023-07-31T10:57:55;10.20;;;6.82;;
39956;SDS011;48483;44.640;7.494;2023-07-31T11:00:25;8.82;;;7.53;;
39956;SDS011;48483;44.640;7.494;2023-07-31T11:02:56;8.95;;;6.35;;
39956;SDS011;48483;44.640;7.494;2023-07-31T11:05:47;8.65;;;6.95;;
39956;SDS011;48483;44.640;7.494;2023-07-31T11:08:17;7.43;;;6.00;;
39956;SDS011;48483;44.640;7.494;2023-07-31T11:10:45;9.65;;;7.18;;
39956;SDS011;48483;44.640;7.494;2023-07-31T11:13:12;9.05;;;7.57;;
39956;SDS011;48483;44.640;7.494;2023-07-31T11:15:40;8.57;;;7.13;;
39956;SDS011;48483;44.640;7.494;2023-07-31T11:18:06;7.50;;;6.10;;
39956;SDS011;48483;44.640;7.494;2023-07-31T11:20:36;6.97;;;5.67;;
39956;SDS011;48483;44.640;7.494;2023-07-31T11:23:05;9.13;;;6.90;;
39956;SDS011;48483;44.640;7.494;2023-07-31T11:25:33;9.65;;;6.68;;
39956;SDS011;48483;44.640;7.494;2023-07-31T11:28:02;8.80;;;6.90;;
39956;SDS011;48483;44.640;7.494;2023-07-31T11:30:30;9.48;;;6.50;;
39956;SDS011;48483;44.640;7.494;2023-07-31T11:32:56;11.10;;;9.40;;
39956;SDS011;48483;44.640;7.494;2023-07-31T11:35:23;10.43;;;8.55;;
39956;SDS011;48483;44.640;7.494;2023-07-31T11:37:50;9.15;;;7.43;;
39956;SDS011;48483;44.640;7.494;2023-07-31T11:40:18;10.88;;;5.65;;
39956;SDS011;48483;44.640;7.494;2023-07-31T11:42:45;8.00;;;5.68;;
39956;SDS011;48483;44.640;7.494;2023-07-31T11:45:12;8.82;;;5.95;;
39956;SDS011;48483;44.640;7.494;2023-07-31T11:47:39;7.60;;;5.22;;
39956;SDS011;48483;44.640;7.494;2023-07-31T11:50:06;8.65;;;5.05;;
39956;SDS011;48483;44.640;7.494;2023-07-31T11:52:43;8.68;;;6.18;;
39956;SDS011;48483;44.640;7.494;2023-07-31T11:55:12;11.82;;;7.47;;
39956;SDS011;48483;44.640;7.494;2023-07-31T11:57:40;10.07;;;5.80;;
39956;SDS011;48483;44.640;7.494;2023-07-31T12:00:09;9.20;;;6.20;;
39956;SDS011;48483;44.640;7.494;2023-07-31T12:02:39;8.05;;;5.20;;
39956;SDS011;48483;44.640;7.494;2023-07-31T12:05:06;8.20;;;5.85;;
39956;SDS011;48483;44.640;7.494;2023-07-31T12:10:09;7.20;;;6.10;;
39956;SDS011;48483;44.640;7.494;2023-07-31T12:12:36;8.43;;;5.88;;
39956;SDS011;48483;44.640;7.494;2023-07-31T12:15:04;10.85;;;5.40;;
39956;SDS011;48483;44.640;7.494;2023-07-31T12:17:40;6.25;;;5.30;;
39956;SDS011;48483;44.640;7.494;2023-07-31T12:20:07;8.10;;;6.32;;
39956;SDS011;48483;44.640;7.494;2023-07-31T12:22:35;7.63;;;6.32;;
39956;SDS011;48483;44.640;7.494;2023-07-31T12:25:02;9.05;;;5.80;;
39956;SDS011;48483;44.640;7.494;2023-07-31T12:27:32;5.95;;;5.25;;
39956;SDS011;48483;44.640;7.494;2023-07-31T12:30:00;5.95;;;5.35;;
39956;SDS011;48483;44.640;7.494;2023-07-31T12:32:29;10.52;;;5.28;;
39956;SDS011;48483;44.640;7.494;2023-07-31T12:34:58;9.70;;;5.00;;
39956;SDS011;48483;44.640;7.494;2023-07-31T12:37:26;5.97;;;4.35;;
39956;SDS011;48483;44.640;7.494;2023-07-31T12:39:52;5.22;;;4.40;;
39956;SDS011;48483;44.640;7.494;2023-07-31T12:42:19;6.25;;;4.95;;
39956;SDS011;48483;44.640;7.494;2023-07-31T12:44:46;6.63;;;4.45;;
39956;SDS011;48483;44.640;7.494;2023-07-31T12:47:13;8.18;;;5.45;;
39956;SDS011;48483;44.640;7.494;2023-07-31T12:49:42;7.53;;;4.53;;
39956;SDS011;48483;44.640;7.494;2023-07-31T12:52:09;5.47;;;4.22;;
39956;SDS011;48483;44.640;7.494;2023-07-31T12:54:35;8.02;;;5.30;;
39956;SDS011;48483;44.640;7.494;2023-07-31T12:57:02;6.15;;;4.70;;
39956;SDS011;48483;44.640;7.494;2023-07-31T12:59:29;6.63;;;4.63;;
39956;SDS011;48483;44.640;7.494;2023-07-31T13:01:56;5.85;;;5.18;;
39956;SDS011;48483;44.640;7.494;2023-07-31T13:04:23;7.80;;;4.10;;
39956;SDS011;48483;44.640;7.494;2023-07-31T13:06:51;6.30;;;5.30;;
39956;SDS011;48483;44.640;7.494;2023-07-31T13:09:17;6.20;;;4.55;;
39956;SDS011;48483;44.640;7.494;2023-07-31T13:11:44;9.23;;;4.75;;
39956;SDS011;48483;44.640;7.494;2023-07-31T13:14:10;11.63;;;4.80;;
39956;SDS011;48483;44.640;7.494;2023-07-31T13:16:38;6.20;;;4.68;;
39956;SDS011;48483;44.640;7.494;2023-07-31T13:19:04;7.28;;;4.95;;
39956;SDS011;48483;44.640;7.494;2023-07-31T13:21:31;5.32;;;3.85;;
39956;SDS011;48483;44.640;7.494;2023-07-31T13:24:00;6.63;;;4.40;;
39956;SDS011;48483;44.640;7.494;2023-07-31T13:26:27;4.88;;;3.90;;
39956;SDS011;48483;44.640;7.494;2023-07-31T13:28:54;6.35;;;4.53;;
39956;SDS011;48483;44.640;7.494;2023-07-31T13:31:21;6.45;;;4.65;;
39956;SDS011;48483;44.640;7.494;2023-07-31T13:33:47;6.35;;;4.55;;
39956;SDS011;48483;44.640;7.494;2023-07-31T13:36:14;6.63;;;4.03;;
39956;SDS011;48483;44.640;7.494;2023-07-31T13:38:40;7.20;;;5.20;;
39956;SDS011;48483;44.640;7.494;2023-07-31T13:41:08;6.50;;;4.82;;
39956;SDS011;48483;44.640;7.494;2023-07-31T13:43:35;6.75;;;4.45;;
39956;SDS011;48483;44.640;7.494;2023-07-31T13:46:02;6.07;;;4.53;;
39956;SDS011;48483;44.640;7.494;2023-07-31T13:48:33;6.15;;;4.88;;
39956;SDS011;48483;44.640;7.494;2023-07-31T13:51:00;6.28;;;5.10;;
39956;SDS011;48483;44.640;7.494;2023-07-31T13:53:27;6.93;;;5.53;;
39956;SDS011;48483;44.640;7.494;2023-07-31T13:55:54;9.57;;;4.55;;
39956;SDS011;48483;44.640;7.494;2023-07-31T13:58:22;7.63;;;5.30;;
39956;SDS011;48483;44.640;7.494;2023-07-31T14:00:49;6.20;;;4.53;;
39956;SDS011;48483;44.640;7.494;2023-07-31T14:03:15;7.45;;;4.45;;
39956;SDS011;48483;44.640;7.494;2023-07-31T14:05:42;8.45;;;4.43;;
39956;SDS011;48483;44.640;7.494;2023-07-31T14:08:09;5.60;;;4.57;;
39956;SDS011;48483;44.640;7.494;2023-07-31T14:10:35;4.55;;;4.00;;
39956;SDS011;48483;44.640;7.494;2023-07-31T14:13:02;4.88;;;4.20;;
39956;SDS011;48483;44.640;7.494;2023-07-31T14:15:30;7.20;;;4.38;;
39956;SDS011;48483;44.640;7.494;2023-07-31T14:17:58;7.38;;;4.72;;
39956;SDS011;48483;44.640;7.494;2023-07-31T14:20:24;9.70;;;4.13;;
39956;SDS011;48483;44.640;7.494;2023-07-31T14:22:51;6.80;;;4.68;;
39956;SDS011;48483;44.640;7.494;2023-07-31T14:25:37;4.68;;;4.15;;
39956;SDS011;48483;44.640;7.494;2023-07-31T14:28:03;6.28;;;4.45;;
39956;SDS011;48483;44.640;7.494;2023-07-31T14:30:31;5.35;;;4.18;;
39956;SDS011;48483;44.640;7.494;2023-07-31T14:32:58;7.38;;;4.72;;
39956;SDS011;48483;44.640;7.494;2023-07-31T14:35:26;7.60;;;4.85;;
39956;SDS011;48483;44.640;7.494;2023-07-31T14:37:53;5.95;;;4.28;;
39956;SDS011;48483;44.640;7.494;2023-07-31T14:40:19;6.82;;;5.65;;
39956;SDS011;48483;44.640;7.494;2023-07-31T14:42:46;6.03;;;4.65;;
39956;SDS011;48483;44.640;7.494;2023-07-31T14:45:13;8.52;;;5.00;;
39956;SDS011;48483;44.640;7.494;2023-07-31T14:47:41;11.90;;;5.25;;
39956;SDS011;48483;44.640;7.494;2023-07-31T14:50:08;6.18;;;4.43;;
39956;SDS011;48483;44.640;7.494;2023-07-31T14:52:35;5.18;;;4.18;;
39956;SDS011;48483;44.640;7.494;2023-07-31T14:55:02;5.80;;;4.65;;
39956;SDS011;48483;44.640;7.494;2023-07-31T14:57:29;5.80;;;4.55;;